Time;durP1;ratioP1;P1;durP2;ratioP2;P2;SDS_P1;SDS_P2;PMS_P1;PMS_P2;Temp;Humidity;BMP_temperature;BMP_pressure;BME280_temperature;BME280_humidity;BME280_pressure;Samples;Min_cycle;Max_cycle;Signal;HPM_P1;HPM_P2
2022/08/30 00:01:06;;;;;;;19.33;12.30;;;;;;;14.22;100.00;96161.78;1035834;28;20066;-70
2022/08/30 00:01:37;;;;;;;20.88;12.20;;;;;;;14.21;100.00;96161.00;1038711;28;20052;-70
2022/08/30 00:02:07;;;;;;;22.33;12.75;;;;;;;14.22;100.00;96159.13;1037303;28;20053;-73
2022/08/30 00:02:38;;;;;;;16.88;12.75;;;;;;;14.20;100.00;96151.50;1044479;28;20135;-69
2022/08/30 00:03:09;;;;;;;23.02;13.38;;;;;;;14.20;100.00;96162.06;1044105;28;20049;-70
2022/08/30 00:03:44;;;;;;;19.73;13.45;;;;;;;14.20;100.00;96161.28;1030842;28;20096;-70
2022/08/30 00:04:14;;;;;;;18.67;13.38;;;;;;;14.21;100.00;96153.06;1030306;28;20030;-70
2022/08/30 00:04:45;;;;;;;18.73;13.10;;;;;;;14.20;100.00;96158.63;1025164;28;20373;-70
2022/08/30 00:05:16;;;;;;;16.90;12.25;;;;;;;14.18;100.00;96155.47;1023448;28;20035;-71
2022/08/30 00:05:47;;;;;;;16.98;12.48;;;;;;;14.17;100.00;96156.53;1023722;28;20050;-70
2022/08/30 00:06:18;;;;;;;16.00;12.40;;;;;;;14.08;100.00;96153.69;1031102;28;20022;-70
2022/08/30 00:06:48;;;;;;;14.57;12.25;;;;;;;14.13;100.00;96156.31;1026964;28;20109;-71
2022/08/30 00:07:19;;;;;;;16.15;12.60;;;;;;;14.11;100.00;96155.78;1031140;28;20038;-70
2022/08/30 00:07:49;;;;;;;17.35;13.05;;;;;;;14.10;100.00;96151.56;1035013;28;20068;-70
2022/08/30 00:08:20;;;;;;;17.17;12.70;;;;;;;14.10;100.00;96162.13;1026882;28;20053;-70
2022/08/30 00:08:50;;;;;;;17.33;13.88;;;;;;;14.10;100.00;96157.63;1030682;28;20026;-69
2022/08/30 00:09:21;;;;;;;17.13;12.73;;;;;;;14.07;100.00;96152.13;1022036;29;20027;-70
2022/08/30 00:09:51;;;;;;;23.27;13.38;;;;;;;14.09;100.00;96155.28;1026769;28;20496;-72
2022/08/30 00:10:22;;;;;;;18.52;13.23;;;;;;;14.11;100.00;96161.06;1026785;28;20038;-70
2022/08/30 00:10:52;;;;;;;18.95;13.80;;;;;;;14.12;100.00;96160.81;1030910;28;20041;-71
2022/08/30 00:11:24;;;;;;;22.52;14.02;;;;;;;14.10;100.00;96157.63;1039047;28;20022;-67
2022/08/30 00:11:55;;;;;;;18.35;13.10;;;;;;;14.06;100.00;96155.84;1031098;28;20033;-70
2022/08/30 00:12:25;;;;;;;16.23;12.60;;;;;;;14.08;100.00;96156.31;1026637;28;20286;-70
2022/08/30 00:12:56;;;;;;;20.00;13.75;;;;;;;14.10;100.00;96159.50;1026713;28;20524;-69
2022/08/30 00:13:28;;;;;;;22.83;14.68;;;;;;;14.09;100.00;96155.28;1027251;28;20035;-70
2022/08/30 00:13:58;;;;;;;22.80;13.85;;;;;;;14.09;100.00;96155.28;1031161;28;20030;-71
2022/08/30 00:14:29;;;;;;;22.08;13.93;;;;;;;14.11;100.00;96153.13;1035213;28;20030;-70
2022/08/30 00:14:59;;;;;;;21.88;14.35;;;;;;;14.03;100.00;96145.81;1034680;28;20045;-69
2022/08/30 00:15:30;;;;;;;23.20;13.45;;;;;;;14.09;100.00;96165.84;1031028;28;20519;-69
2022/08/30 00:16:00;;;;;;;29.67;14.20;;;;;;;14.09;100.00;96157.91;1030774;28;20587;-70
2022/08/30 00:16:31;;;;;;;26.40;14.27;;;;;;;14.10;100.00;96154.22;1030810;28;20045;-72
2022/08/30 00:17:01;;;;;;;24.65;14.60;;;;;;;14.12;100.00;96162.66;1034776;28;20068;-69
2022/08/30 00:17:32;;;;;;;20.17;14.27;;;;;;;14.11;100.00;96153.94;1038750;28;20049;-70
2022/08/30 00:18:03;;;;;;;20.88;13.93;;;;;;;14.05;100.00;96149.75;1030747;28;20030;-69
2022/08/30 00:18:33;;;;;;;20.23;14.52;;;;;;;14.11;100.00;96158.41;1030552;28;20034;-69
2022/08/30 00:19:04;;;;;;;18.27;14.13;;;;;;;14.13;100.00;96161.59;1028042;28;20042;-70
2022/08/30 00:19:34;;;;;;;17.60;14.75;;;;;;;14.11;100.00;96159.19;1030714;28;20062;-70
2022/08/30 00:20:06;;;;;;;23.08;14.43;;;;;;;14.09;100.00;96157.91;1032490;28;20030;-70
2022/08/30 00:20:37;;;;;;;19.25;14.30;;;;;;;14.06;100.00;96150.56;1031038;28;20032;-70
2022/08/30 00:21:10;;;;;;;23.15;14.40;;;;;;;14.13;100.00;96156.31;1037272;28;20108;-68
2022/08/30 00:21:40;;;;;;;20.30;13.85;;;;;;;14.11;100.00;96159.19;1033964;28;20076;-69
2022/08/30 00:22:11;;;;;;;18.02;14.55;;;;;;;14.11;100.00;96161.84;1031894;28;20184;-69
2022/08/30 00:22:41;;;;;;;57.45;19.83;;;;;;;14.04;100.00;96150.81;1039475;28;20041;-70
2022/08/30 00:23:12;;;;;;;75.28;18.73;;;;;;;14.11;100.00;96158.41;1034687;28;20029;-70
2022/08/30 00:23:42;;;;;;;50.80;16.67;;;;;;;14.10;100.00;96152.34;1034636;28;20155;-70
2022/08/30 00:24:13;;;;;;;27.73;15.60;;;;;;;14.01;100.00;96148.72;1034659;28;20506;-68
2022/08/30 00:24:44;;;;;;;35.90;15.88;;;;;;;14.10;100.00;96164.78;1034885;28;20025;-71
2022/08/30 00:25:14;;;;;;;24.73;15.65;;;;;;;14.09;100.00;96163.97;1042247;28;20037;-71
2022/08/30 00:25:45;;;;;;;38.30;14.55;;;;;;;14.08;100.00;96162.41;1042849;28;20544;-70
2022/08/30 00:26:15;;;;;;;34.03;15.43;;;;;;;14.09;100.00;96160.56;1042966;28;20330;-70
2022/08/30 00:26:46;;;;;;;29.10;14.75;;;;;;;14.03;100.00;96156.38;1034717;28;20065;-70
2022/08/30 00:27:16;;;;;;;25.30;14.18;;;;;;;14.06;100.00;96169.03;1034625;28;20068;-70
2022/08/30 00:27:47;;;;;;;20.00;14.35;;;;;;;14.04;100.00;96160.59;1034692;28;20510;-71
2022/08/30 00:28:18;;;;;;;27.23;14.35;;;;;;;14.00;100.00;96165.63;1034926;28;20471;-69
2022/08/30 00:28:48;;;;;;;23.92;14.48;;;;;;;14.03;100.00;96165.06;1038619;28;20107;-69
2022/08/30 00:29:19;;;;;;;36.65;15.93;;;;;;;13.98;100.00;96151.13;1038049;28;20084;-69
2022/08/30 00:29:50;;;;;;;23.45;14.55;;;;;;;14.04;100.00;96165.84;1030998;28;20082;-70
2022/08/30 00:30:20;;;;;;;23.70;14.52;;;;;;;14.01;100.00;96163.75;1026636;28;20062;-69
2022/08/30 00:30:51;;;;;;;20.25;13.35;;;;;;;14.00;100.00;96162.97;1027034;28;20044;-70
2022/08/30 00:31:21;;;;;;;18.80;14.13;;;;;;;14.00;100.00;96167.47;1027073;28;20558;-70
2022/08/30 00:31:52;;;;;;;19.35;13.98;;;;;;;14.00;100.00;96162.19;1038942;28;20059;-71
2022/08/30 00:32:22;;;;;;;21.77;15.10;;;;;;;13.97;100.00;96160.09;1030881;28;20030;-70
2022/08/30 00:32:53;;;;;;;18.67;13.68;;;;;;;14.00;100.00;96160.34;1030665;28;20018;-67
2022/08/30 00:33:23;;;;;;;15.95;13.23;;;;;;;14.00;100.00;96162.97;1031124;28;20388;-69
2022/08/30 00:33:54;;;;;;;20.08;14.15;;;;;;;14.00;100.00;96162.19;1031282;28;20018;-70
2022/08/30 00:34:24;;;;;;;19.80;13.45;;;;;;;13.96;100.00;96158.53;1043088;28;20020;-69
2022/08/30 00:34:55;;;;;;;21.33;13.07;;;;;;;13.95;100.00;96156.94;1042264;28;20028;-69
2022/08/30 00:35:25;;;;;;;16.13;12.50;;;;;;;14.00;100.00;96162.97;1026231;28;20564;-71
2022/08/30 00:35:56;;;;;;;17.48;13.38;;;;;;;14.03;100.00;96166.94;1038111;28;20479;-70
2022/08/30 00:36:26;;;;;;;19.63;13.30;;;;;;;14.01;100.00;96167.19;1043448;28;20025;-72
2022/08/30 00:36:58;;;;;;;16.27;13.13;;;;;;;13.96;100.00;96155.91;1042661;28;20021;-71
2022/08/30 00:37:28;;;;;;;19.15;12.32;;;;;;;13.91;100.00;96148.78;1039444;28;20253;-71
2022/08/30 00:37:59;;;;;;;20.10;13.10;;;;;;;14.00;100.00;96155.06;1038792;28;20021;-71
2022/08/30 00:38:29;;;;;;;17.27;12.60;;;;;;;13.96;100.00;96150.63;1038893;28;20029;-71
2022/08/30 00:38:59;;;;;;;15.07;12.50;;;;;;;14.01;100.00;96167.19;1031044;28;20037;-70
2022/08/30 00:39:30;;;;;;;17.23;12.88;;;;;;;14.01;100.00;96161.13;1030469;28;20026;-71
2022/08/30 00:40:01;;;;;;;21.13;13.70;;;;;;;14.01;100.00;96163.75;1030629;28;20262;-70
2022/08/30 00:40:32;;;;;;;17.60;13.10;;;;;;;14.01;100.00;96158.50;1031304;28;20513;-71
2022/08/30 00:41:02;;;;;;;15.93;12.45;;;;;;;14.01;100.00;96164.53;1034851;28;20049;-71
2022/08/30 00:41:33;;;;;;;17.90;13.77;;;;;;;14.02;100.00;96160.09;1027104;28;20465;-70
2022/08/30 00:42:03;;;;;;;17.05;13.40;;;;;;;14.03;100.00;96164.28;1030646;28;20061;-71
2022/08/30 00:42:34;;;;;;;15.43;12.60;;;;;;;14.03;100.00;96159.00;1026555;28;20023;-71
2022/08/30 00:43:07;;;;;;;17.83;13.45;;;;;;;14.04;100.00;96166.63;1023577;28;20051;-72
2022/08/30 00:43:37;;;;;;;16.02;12.18;;;;;;;14.05;100.00;96159.50;1022818;29;20086;-72
2022/08/30 00:44:08;;;;;;;14.43;12.05;;;;;;;14.05;100.00;96159.50;1023183;28;20129;-71
2022/08/30 00:44:40;;;;;;;16.10;12.88;;;;;;;14.05;100.00;96162.16;1026882;28;20043;-68
2022/08/30 00:45:16;;;;;;;16.73;12.15;;;;;;;14.04;100.00;96157.94;1027955;28;20097;-71
2022/08/30 00:45:46;;;;;;;17.48;11.98;;;;;;;14.03;100.00;96153.72;1026759;28;20026;-71
2022/08/30 00:46:17;;;;;;;16.00;11.98;;;;;;;14.02;100.00;96160.88;1029523;28;20026;-70
2022/08/30 00:46:47;;;;;;;14.63;11.07;;;;;;;14.03;100.00;96161.66;1026644;28;20222;-70
2022/08/30 00:47:19;;;;;;;16.25;11.85;;;;;;;14.02;100.00;96158.22;1027387;28;20069;-70
2022/08/30 00:47:49;;;;;;;14.07;11.57;;;;;;;14.00;100.00;96164.84;1036273;28;20018;-70
2022/08/30 00:48:20;;;;;;;16.35;12.13;;;;;;;13.98;100.00;96153.75;1026628;28;20031;-71
2022/08/30 00:48:51;;;;;;;15.57;11.77;;;;;;;13.98;100.00;96156.38;1026512;28;20034;-70
2022/08/30 00:49:22;;;;;;;17.45;12.68;;;;;;;14.00;100.00;96162.19;1025769;28;20351;-70
2022/08/30 00:49:53;;;;;;;12.90;10.65;;;;;;;13.96;100.00;96155.91;1030729;28;20081;-71
2022/08/30 00:50:27;;;;;;;15.98;12.43;;;;;;;13.92;100.00;96150.38;1022328;28;20473;-70
2022/08/30 00:51:02;;;;;;;15.88;11.82;;;;;;;13.94;100.00;96158.00;1022212;29;20493;-70
2022/08/30 00:51:33;;;;;;;13.65;10.70;;;;;;;13.97;100.00;96162.75;1030373;28;20026;-68
2022/08/30 00:52:03;;;;;;;14.27;11.90;;;;;;;13.93;100.00;96156.44;1030655;28;20034;-67
2022/08/30 00:52:35;;;;;;;17.02;11.80;;;;;;;13.90;100.00;96160.41;1026560;28;20030;-70
2022/08/30 00:53:07;;;;;;;16.33;11.60;;;;;;;13.94;100.00;96160.66;1026462;28;20014;-68
2022/08/30 00:53:40;;;;;;;15.18;12.00;;;;;;;13.94;100.00;96171.19;1030550;28;20419;-70
2022/08/30 00:54:11;;;;;;;15.55;12.27;;;;;;;13.92;100.00;96166.22;1022713;29;20098;-70
2022/08/30 00:54:43;;;;;;;15.80;11.82;;;;;;;13.90;100.00;96168.31;1023831;28;20086;-69
2022/08/30 00:55:14;;;;;;;15.95;12.05;;;;;;;13.90;100.00;96163.81;1027188;28;20254;-70
2022/08/30 00:55:45;;;;;;;18.75;12.25;;;;;;;13.89;100.00;96161.47;1026656;28;20528;-71
2022/08/30 00:56:16;;;;;;;16.85;12.43;;;;;;;13.87;100.00;96156.44;1030375;28;20068;-70
2022/08/30 00:56:47;;;;;;;14.02;12.20;;;;;;;13.86;100.00;96162.81;1030410;28;20026;-70
2022/08/30 00:57:17;;;;;;;17.60;12.32;;;;;;;13.86;100.00;96159.38;1030506;28;20551;-69
2022/08/30 00:57:50;;;;;;;17.67;13.38;;;;;;;13.87;100.00;96163.59;1030582;28;20446;-70
2022/08/30 00:58:28;;;;;;;19.13;12.73;;;;;;;13.86;100.00;96160.16;1026610;28;20035;-70
2022/08/30 00:58:59;;;;;;;17.85;13.02;;;;;;;13.79;100.00;96153.63;1030514;28;20029;-71
2022/08/30 00:59:30;;;;;;;21.55;12.98;;;;;;;13.79;100.00;96149.13;1025935;28;20126;-70
2022/08/30 01:00:01;;;;;;;20.42;13.18;;;;;;;13.82;100.00;96155.72;1022586;29;20027;-70
2022/08/30 01:00:31;;;;;;;19.38;13.38;;;;;;;13.81;100.00;96149.63;1026403;28;20019;-70
2022/08/30 01:01:02;;;;;;;18.95;13.43;;;;;;;13.83;100.00;96160.72;1026499;28;20018;-69
2022/08/30 01:01:32;;;;;;;17.17;13.68;;;;;;;13.84;100.00;96157.00;1029038;28;20038;-70
2022/08/30 01:02:03;;;;;;;16.60;13.55;;;;;;;13.80;100.00;96157.81;1026619;28;20531;-69
2022/08/30 01:02:33;;;;;;;19.30;14.63;;;;;;;13.81;100.00;96154.91;1022633;29;20367;-68
2022/08/30 01:03:08;;;;;;;20.65;13.73;;;;;;;13.83;100.00;96155.44;1026316;28;20431;-69
2022/08/30 01:03:38;;;;;;;17.48;13.43;;;;;;;13.77;100.00;96151.22;1023825;28;20027;-70
2022/08/30 01:04:09;;;;;;;17.00;13.98;;;;;;;13.79;100.00;96154.41;1023912;28;20011;-70
2022/08/30 01:04:39;;;;;;;15.32;12.43;;;;;;;13.84;100.00;96158.84;1023007;28;20039;-69
2022/08/30 01:05:10;;;;;;;17.05;13.10;;;;;;;13.83;100.00;96152.78;1022444;29;20027;-68
2022/08/30 01:05:41;;;;;;;16.85;13.50;;;;;;;13.81;100.00;96148.84;1022647;29;20030;-69
2022/08/30 01:06:14;;;;;;;17.25;13.70;;;;;;;13.81;100.00;96154.91;1022658;29;20027;-69
2022/08/30 01:06:45;;;;;;;16.23;12.73;;;;;;;13.81;100.00;96154.91;1022468;28;20026;-70
2022/08/30 01:07:16;;;;;;;17.33;13.13;;;;;;;13.78;100.00;96155.47;1023386;28;20027;-68
2022/08/30 01:07:46;;;;;;;16.08;12.55;;;;;;;13.68;100.00;96140.50;1030572;28;20050;-70
2022/08/30 01:08:19;;;;;;;26.33;13.15;;;;;;;13.76;100.00;96147.03;1026977;28;20033;-70
2022/08/30 01:08:49;;;;;;;23.75;13.48;;;;;;;13.78;100.00;96163.38;1022727;29;20472;-70
2022/08/30 01:09:20;;;;;;;17.95;12.50;;;;;;;13.75;100.00;96156.00;1021691;29;20023;-69
2022/08/30 01:09:50;;;;;;;17.63;12.30;;;;;;;13.76;100.00;96154.16;1030465;28;20395;-70
2022/08/30 01:10:24;;;;;;;25.08;13.13;;;;;;;13.73;100.00;96158.13;1026848;28;20213;-68
2022/08/30 01:10:54;;;;;;;20.23;14.63;;;;;;;13.72;100.00;96161.81;1031027;28;20030;-70
2022/08/30 01:11:25;;;;;;;23.30;13.57;;;;;;;13.74;100.00;96159.69;1026746;28;20061;-68
2022/08/30 01:11:55;;;;;;;20.52;12.93;;;;;;;13.73;100.00;96158.13;1035194;28;20437;-70
2022/08/30 01:12:26;;;;;;;21.60;12.82;;;;;;;13.68;100.00;96150.22;1034723;28;20028;-70
2022/08/30 01:12:57;;;;;;;19.58;13.68;;;;;;;13.72;100.00;96166.31;1034900;28;20100;-69
2022/08/30 01:13:28;;;;;;;18.45;12.63;;;;;;;13.74;100.00;96156.28;1033268;28;20111;-70
2022/08/30 01:13:58;;;;;;;19.98;12.82;;;;;;;13.66;100.00;96157.63;1022560;28;20101;-70
2022/08/30 01:14:32;;;;;;;26.00;13.10;;;;;;;13.70;100.00;96157.88;1026542;28;20025;-70
2022/08/30 01:15:03;;;;;;;21.10;12.68;;;;;;;13.70;100.00;96158.66;1026540;28;20094;-71
2022/08/30 01:15:34;;;;;;;20.02;14.48;;;;;;;13.71;100.00;96165.50;1026348;28;20050;-70
2022/08/30 01:16:05;;;;;;;19.90;13.15;;;;;;;13.70;100.00;96165.78;1030695;28;20061;-71
2022/08/30 01:16:35;;;;;;;20.13;13.38;;;;;;;13.68;100.00;96166.03;1019133;29;20532;-70
2022/08/30 01:17:06;;;;;;;19.23;14.50;;;;;;;13.68;100.00;96160.78;1022657;29;20836;-70
2022/08/30 01:17:36;;;;;;;20.40;13.68;;;;;;;13.67;100.00;96164.47;1030414;28;20049;-70
2022/08/30 01:18:07;;;;;;;19.10;13.75;;;;;;;13.67;100.00;96161.84;1030605;28;20026;-68
2022/08/30 01:18:38;;;;;;;16.95;12.55;;;;;;;13.58;100.00;96145.00;1034604;28;20414;-71
2022/08/30 01:19:21;;;;;;;18.75;13.38;;;;;;;13.64;100.00;96154.47;1029928;28;20109;-70
2022/08/30 01:20:06;;;;;;;21.58;13.80;;;;;;;13.60;100.00;96145.53;1026491;28;20019;-70
2022/08/30 01:21:06;;;;;;;35.47;14.73;;;;;;;13.63;100.00;96153.69;1030206;28;20034;-70
2022/08/30 01:21:42;;;;;;;19.45;12.60;;;;;;;13.58;100.00;96145.00;1040711;28;20018;-70
2022/08/30 01:22:31;;;;;;;15.50;11.98;;;;;;;13.64;100.00;96152.63;1038680;28;20522;-68
2022/08/30 01:23:07;;;;;;;18.42;13.02;;;;;;;13.59;100.00;96152.66;1036728;28;20022;-69
2022/08/30 01:23:39;;;;;;;16.67;12.73;;;;;;;13.60;100.00;96142.91;1024780;28;20059;-71
2022/08/30 01:24:09;;;;;;;20.58;13.57;;;;;;;13.60;100.00;96145.53;1026539;28;20638;-69
2022/08/30 01:24:40;;;;;;;16.45;12.85;;;;;;;13.60;100.00;96148.16;1030498;28;20124;-69
2022/08/30 01:25:11;;;;;;;19.92;13.80;;;;;;;13.56;100.00;96145.28;1031227;28;20026;-70
2022/08/30 01:25:42;;;;;;;16.10;12.55;;;;;;;13.58;100.00;96151.09;1030659;28;20475;-69
2022/08/30 01:26:13;;;;;;;24.48;14.15;;;;;;;13.58;100.00;96145.00;1026556;28;20118;-70
2022/08/30 01:26:44;;;;;;;44.95;15.25;;;;;;;13.50;100.00;96130.53;1022566;28;20027;-70
2022/08/30 01:27:15;;;;;;;39.10;15.93;;;;;;;13.58;100.00;96143.19;1030555;28;20018;-70
2022/08/30 01:27:51;;;;;;;45.40;14.23;;;;;;;13.58;100.00;96139.72;1031089;28;20035;-69
2022/08/30 01:28:25;;;;;;;25.60;13.32;;;;;;;13.59;100.00;96147.38;1035734;28;20346;-70
2022/08/30 01:28:58;;;;;;;27.55;13.38;;;;;;;13.59;100.00;96143.97;1030688;28;20061;-71
2022/08/30 01:29:29;;;;;;;26.70;12.80;;;;;;;13.59;100.00;96142.09;1026000;28;20110;-69
2022/08/30 01:29:59;;;;;;;16.42;12.13;;;;;;;13.58;100.00;96145.00;1026281;28;20034;-70
2022/08/30 01:30:31;;;;;;;16.42;13.00;;;;;;;13.53;100.00;96143.19;1030209;28;20052;-71
2022/08/30 01:31:01;;;;;;;15.70;13.07;;;;;;;13.59;100.00;96146.59;1022458;29;20547;-70
2022/08/30 01:31:35;;;;;;;17.67;12.38;;;;;;;13.53;100.00;96134.50;1026626;28;20456;-71
2022/08/30 01:32:06;;;;;;;15.75;11.73;;;;;;;13.60;100.00;96148.94;1030259;28;20023;-70
2022/08/30 01:32:43;;;;;;;20.48;13.32;;;;;;;13.54;100.00;96136.84;1031649;28;20026;-69
2022/08/30 01:33:14;;;;;;;18.33;12.43;;;;;;;13.61;100.00;96155.00;1032969;28;20014;-70
2022/08/30 01:33:45;;;;;;;17.08;12.93;;;;;;;13.59;100.00;96150.00;1032289;28;20031;-70
2022/08/30 01:34:15;;;;;;;19.88;14.00;;;;;;;13.58;100.00;96150.28;1034406;28;20018;-69
2022/08/30 01:34:47;;;;;;;21.50;14.13;;;;;;;13.57;100.00;96153.97;1034668;28;20018;-69
2022/08/30 01:35:19;;;;;;;18.05;13.35;;;;;;;13.52;100.00;96146.91;1034914;28;20060;-68
2022/08/30 01:36:00;;;;;;;17.73;13.77;;;;;;;13.55;100.00;96156.91;1033480;28;20041;-70
2022/08/30 01:36:30;;;;;;;29.70;14.20;;;;;;;13.52;100.00;96154.00;1034399;28;20084;-69
2022/08/30 01:37:01;;;;;;;25.98;14.10;;;;;;;13.53;100.00;96152.94;1030365;28;20484;-69
2022/08/30 01:37:32;;;;;;;16.95;12.27;;;;;;;13.50;100.00;96150.84;1031469;28;20415;-69
2022/08/30 01:38:02;;;;;;;14.82;11.85;;;;;;;13.50;100.00;96153.50;1026635;28;20025;-72
2022/08/30 01:38:44;;;;;;;18.92;12.32;;;;;;;13.52;100.00;96156.66;1026598;28;20086;-70
2022/08/30 01:39:16;;;;;;;18.45;12.88;;;;;;;13.52;100.00;96159.28;1031628;28;20022;-70
2022/08/30 01:39:47;;;;;;;17.05;12.45;;;;;;;13.50;100.00;96156.91;1032543;28;20026;-70
2022/08/30 01:40:18;;;;;;;18.05;12.32;;;;;;;13.48;100.00;96155.59;1032334;28;20101;-70
2022/08/30 01:40:49;;;;;;;14.05;11.75;;;;;;;13.42;100.00;96145.09;1026694;28;20019;-70
2022/08/30 01:41:22;;;;;;;19.02;12.73;;;;;;;13.50;100.00;96153.50;1026546;28;20023;-70
2022/08/30 01:41:52;;;;;;;17.88;12.45;;;;;;;13.48;100.00;96156.41;1027046;28;20027;-70
2022/08/30 01:42:23;;;;;;;15.30;12.23;;;;;;;13.46;100.00;96155.09;1027889;28;20475;-70
2022/08/30 01:42:53;;;;;;;17.45;12.90;;;;;;;13.45;100.00;96156.94;1039004;28;20021;-69
2022/08/30 01:43:25;;;;;;;13.73;11.23;;;;;;;13.46;100.00;96161.16;1043054;28;20099;-71
2022/08/30 01:43:57;;;;;;;20.67;12.65;;;;;;;13.44;100.00;96150.84;1038901;28;20142;-70
2022/08/30 01:44:30;;;;;;;13.80;12.10;;;;;;;13.43;100.00;96151.94;1038533;28;20063;-70
2022/08/30 01:45:00;;;;;;;18.27;12.15;;;;;;;13.41;100.00;96154.06;1034558;28;20293;-71
2022/08/30 01:45:31;;;;;;;17.25;12.25;;;;;;;13.42;100.00;96158.25;1030599;28;20181;-70
2022/08/30 01:46:01;;;;;;;16.88;13.20;;;;;;;13.39;100.00;96153.53;1027163;28;20109;-70
2022/08/30 01:46:37;;;;;;;18.35;13.38;;;;;;;13.41;100.00;96156.69;1030485;28;20058;-70
2022/08/30 01:47:08;;;;;;;20.85;13.23;;;;;;;13.40;100.00;96155.09;1026669;28;20022;-70
2022/08/30 01:47:39;;;;;;;15.50;13.07;;;;;;;13.40;100.00;96155.09;1027263;28;20058;-70
2022/08/30 01:48:11;;;;;;;16.33;12.85;;;;;;;13.39;100.00;96158.81;1030614;28;20798;-69
2022/08/30 01:48:42;;;;;;;22.75;13.63;;;;;;;13.40;100.00;96154.31;1031295;28;20424;-70
2022/08/30 01:49:14;;;;;;;19.08;13.77;;;;;;;13.42;100.00;96152.22;1038060;28;20029;-69
2022/08/30 01:49:45;;;;;;;17.48;13.45;;;;;;;13.43;100.00;96153.78;1035210;28;20029;-70
2022/08/30 01:50:16;;;;;;;23.20;13.80;;;;;;;13.42;100.00;96152.22;1030609;28;20030;-70
2022/08/30 01:50:47;;;;;;;20.27;14.27;;;;;;;13.41;100.00;96150.59;1030371;28;20076;-70
2022/08/30 01:51:17;;;;;;;20.42;13.52;;;;;;;13.41;100.00;96155.88;1026598;28;20069;-70
2022/08/30 01:51:48;;;;;;;18.15;12.60;;;;;;;13.43;100.00;96153.78;1030963;28;20452;-70
2022/08/30 01:52:18;;;;;;;21.50;13.65;;;;;;;13.39;100.00;96147.47;1042747;28;20425;-71
2022/08/30 01:52:49;;;;;;;19.67;14.32;;;;;;;13.43;100.00;96149.28;1030418;28;20056;-71
2022/08/30 01:53:19;;;;;;;19.02;13.93;;;;;;;13.41;100.00;96159.34;1030622;28;20765;-70
2022/08/30 01:53:50;;;;;;;23.00;12.90;;;;;;;13.38;100.00;96148.50;1026588;28;20397;-70
2022/08/30 01:54:20;;;;;;;18.25;12.52;;;;;;;13.38;100.00;96157.22;1026807;28;20035;-71
2022/08/30 01:54:51;;;;;;;18.42;13.15;;;;;;;13.37;100.00;96150.38;1033970;28;20025;-71
2022/08/30 01:55:22;;;;;;;20.77;14.07;;;;;;;13.35;100.00;96155.13;1030620;28;20065;-70
2022/08/30 01:55:52;;;;;;;18.83;13.02;;;;;;;13.35;100.00;96152.50;1030779;28;20046;-70
2022/08/30 01:56:23;;;;;;;19.48;13.48;;;;;;;13.35;100.00;96157.78;1030663;28;20026;-70
2022/08/30 01:56:55;;;;;;;16.27;13.38;;;;;;;13.33;100.00;96154.59;1030834;28;20041;-70
2022/08/30 01:57:28;;;;;;;18.15;13.75;;;;;;;13.33;100.00;96149.34;1030918;28;20480;-71
2022/08/30 01:57:58;;;;;;;20.08;13.15;;;;;;;13.35;100.00;96157.78;1031150;28;20026;-70
2022/08/30 01:58:29;;;;;;;18.38;14.77;;;;;;;13.33;100.00;96154.59;1035110;28;20100;-70
2022/08/30 01:58:59;;;;;;;19.65;13.70;;;;;;;13.33;100.00;96154.59;1039011;28;20030;-70
2022/08/30 01:59:30;;;;;;;16.38;13.15;;;;;;;13.34;100.00;96152.75;1034481;28;20065;-70
2022/08/30 02:00:00;;;;;;;24.30;14.38;;;;;;;13.27;100.00;96150.41;1034495;28;20474;-69
2022/08/30 02:00:31;;;;;;;18.88;14.35;;;;;;;13.38;100.00;96153.78;1030380;28;20241;-70
2022/08/30 02:01:03;;;;;;;21.65;14.20;;;;;;;13.36;100.00;96153.28;1022623;29;20409;-70
2022/08/30 02:01:35;;;;;;;18.50;13.23;;;;;;;13.39;100.00;96160.66;1030087;28;20121;-69
2022/08/30 02:02:06;;;;;;;21.98;14.35;;;;;;;13.37;100.00;96155.63;1022668;28;20382;-69
2022/08/30 02:02:36;;;;;;;15.77;12.55;;;;;;;13.41;100.00;96155.88;1027051;28;20054;-70
2022/08/30 02:03:07;;;;;;;17.13;12.90;;;;;;;13.42;100.00;96162.75;1027033;28;20062;-70
2022/08/30 02:03:38;;;;;;;16.55;13.15;;;;;;;13.42;100.00;96157.47;1027341;28;20059;-71
2022/08/30 02:04:10;;;;;;;17.73;14.00;;;;;;;13.43;100.00;96154.56;1031541;28;20547;-70
2022/08/30 02:04:41;;;;;;;18.65;13.75;;;;;;;13.38;100.00;96138.78;1027058;28;20015;-71
2022/08/30 02:05:12;;;;;;;18.13;13.95;;;;;;;13.43;100.00;96154.56;1027880;28;20085;-71
2022/08/30 02:05:42;;;;;;;16.50;12.60;;;;;;;13.41;100.00;96150.59;1019487;29;20106;-70
2022/08/30 02:06:15;;;;;;;16.70;12.85;;;;;;;13.40;100.00;96149.81;1020035;28;20068;-70
2022/08/30 02:06:45;;;;;;;16.50;13.30;;;;;;;13.40;100.00;96149.81;1030766;28;20037;-70
2022/08/30 02:07:16;;;;;;;20.38;13.27;;;;;;;13.40;100.00;96154.31;1028084;28;20041;-70
2022/08/30 02:07:46;;;;;;;21.10;13.48;;;;;;;13.40;100.00;96157.72;1035478;28;20054;-72
2022/08/30 02:08:17;;;;;;;14.55;12.55;;;;;;;13.40;100.00;96147.19;1041543;28;20021;-70
2022/08/30 02:08:47;;;;;;;14.18;12.25;;;;;;;13.36;100.00;96145.38;1035336;28;20048;-70
2022/08/30 02:09:18;;;;;;;15.65;12.45;;;;;;;13.37;100.00;96142.44;1034763;28;20038;-69
2022/08/30 02:09:50;;;;;;;16.35;13.18;;;;;;;13.41;100.00;96146.16;1026935;28;20026;-70
2022/08/30 02:10:20;;;;;;;18.65;12.73;;;;;;;13.42;100.00;96152.22;1027248;28;20389;-69
2022/08/30 02:10:51;;;;;;;16.80;12.00;;;;;;;13.42;100.00;96153.00;1027532;28;20243;-69
2022/08/30 02:11:21;;;;;;;16.58;12.20;;;;;;;13.42;100.00;96150.34;1031193;28;20133;-71
2022/08/30 02:11:52;;;;;;;19.88;13.27;;;;;;;13.42;100.00;96150.34;1030604;28;20023;-70
2022/08/30 02:12:22;;;;;;;18.08;13.43;;;;;;;13.37;100.00;96145.09;1029103;28;20497;-70
2022/08/30 02:12:52;;;;;;;17.17;12.70;;;;;;;13.41;100.00;96148.78;1027916;28;20030;-70
2022/08/30 02:13:23;;;;;;;21.95;12.60;;;;;;;13.41;100.00;96151.44;1035397;28;20018;-69
2022/08/30 02:13:54;;;;;;;20.92;13.27;;;;;;;13.43;100.00;96151.94;1039999;28;20013;-70
2022/08/30 02:14:24;;;;;;;20.08;12.95;;;;;;;13.43;100.00;96154.56;1043671;28;20020;-69
2022/08/30 02:14:55;;;;;;;16.73;12.48;;;;;;;13.37;100.00;96139.81;1046547;28;20064;-69
2022/08/30 02:15:25;;;;;;;23.75;13.63;;;;;;;13.41;100.00;96146.16;1043529;28;20024;-69
2022/08/30 02:15:56;;;;;;;17.30;13.52;;;;;;;13.37;100.00;96145.09;1039279;28;20032;-71
2022/08/30 02:16:26;;;;;;;17.75;13.13;;;;;;;13.36;100.00;96143.53;1031114;28;20018;-71
2022/08/30 02:16:57;;;;;;;25.20;14.75;;;;;;;13.38;100.00;96149.31;1031032;28;20026;-70
2022/08/30 02:17:28;;;;;;;23.38;14.38;;;;;;;13.38;100.00;96140.59;1027073;28;20027;-69
2022/08/30 02:17:59;;;;;;;27.42;15.07;;;;;;;13.36;100.00;96143.53;1030864;28;20027;-71
2022/08/30 02:18:31;;;;;;;21.83;15.05;;;;;;;13.37;100.00;96147.72;1035068;28;20014;-68
2022/08/30 02:19:01;;;;;;;23.80;14.73;;;;;;;13.37;100.00;96153.00;1027184;28;20117;-69
2022/08/30 02:19:32;;;;;;;16.42;12.98;;;;;;;13.36;100.00;96148.00;1031070;28;20026;-69
2022/08/30 02:20:03;;;;;;;19.38;14.45;;;;;;;13.28;100.00;96138.81;1032479;28;20508;-70
2022/08/30 02:20:34;;;;;;;17.08;13.48;;;;;;;13.34;100.00;96145.63;1031239;28;20078;-70
2022/08/30 02:21:05;;;;;;;18.10;12.73;;;;;;;13.29;100.00;96129.06;1027167;28;20030;-73
2022/08/30 02:21:35;;;;;;;18.45;13.70;;;;;;;13.35;100.00;96141.94;1027342;28;20030;-70
2022/08/30 02:22:06;;;;;;;16.25;13.02;;;;;;;13.32;100.00;96136.44;1031078;28;20042;-71
2022/08/30 02:22:36;;;;;;;17.33;13.57;;;;;;;13.37;100.00;96144.31;1026890;28;20374;-70
2022/08/30 02:23:07;;;;;;;19.60;12.38;;;;;;;13.38;100.00;96140.59;1028209;28;20623;-69
2022/08/30 02:23:38;;;;;;;22.27;13.50;;;;;;;13.36;100.00;96138.25;1032610;28;20026;-70